Imperial, Missouri
Current Conditions -  °F | °C
As of 2:53 AM on Thursday 27 Nov 2014 (Local Time) from KCPS Reporting Station
Overcast Overcast  
Wind Chill: 23°   Ceiling: 1400
Heat Index: 32°   Visibility: 8mi
Dew Point: 28°   Wind: 13mph
Humidity: 85%   Direction: 330°NNW
Pressure: 30.34"   Gusts: NA
Location:  38.37°N, 90.37°W
Report Text: KCPS 270853Z AUTO 33011KT 8SM BKN014 OVC030 00/M02 A3034 RMK AO2 SLP276 60000 T00001022 51044 TSNO
Loading
Personal Weather Stations






























Interactive Weather Map New forecast layout! Learn more

10-Day Weather Forecast

Advertisements
Track Severe Weather on mobile